Adamsville, Utah
Current Conditions -  °F | °C
As of 12:52 PM on Friday 28 Nov 2014 (Local Time) from KMLF Reporting Station
Clear Clear  
Wind Chill: 62°   Ceiling: Unl
Heat Index: 62°   Visibility: 10mi
Dew Point: 14°   Wind: 21mph
Humidity: 15%   Direction: 200°SSW
Pressure: 30.03"   Gusts: NA
Location:  38.2672°N, 112.728°W
Report Text: KMLF 281952Z AUTO 20018KT 10SM CLR 17/M10 A3003 RMK AO2 PK WND 21027/1854 SLP139 T01671100 TSNO
Loading
Personal Weather Stations






























Interactive Weather Map New forecast layout! Learn more

10-Day Weather Forecast

Advertisements
Track Severe Weather on mobile